Time;durP1;ratioP1;P1;durP2;ratioP2;P2;SDS_P1;SDS_P2;PMS_P1;PMS_P2;Temp;Humidity;BMP_temperature;BMP_pressure;BME280_temperature;BME280_humidity;BME280_pressure;Samples;Min_cycle;Max_cycle;Signal;HPM_P1;HPM_P2
2022/12/31 00:02:10;;;;;;;4.25;1.13;;;11.40;99.90;;;;;;5045280;28;20138;-74
2022/12/31 00:04:36;;;;;;;5.05;1.20;;;11.40;99.90;;;;;;5096293;28;20492;-73
2022/12/31 00:07:02;;;;;;;8.45;1.65;;;11.40;99.90;;;;;;5096095;28;20145;-74
2022/12/31 00:09:27;;;;;;;1.80;1.00;;;11.40;99.90;;;;;;5078285;28;20051;-74
2022/12/31 00:11:53;;;;;;;6.38;1.58;;;11.40;99.90;;;;;;5078155;28;20435;-73
2022/12/31 00:14:19;;;;;;;4.55;1.40;;;11.40;99.90;;;;;;5061404;28;20076;-73
2022/12/31 00:16:44;;;;;;;2.63;1.20;;;11.40;99.90;;;;;;5096488;28;20059;-74
2022/12/31 00:19:11;;;;;;;1.80;1.10;;;11.40;99.90;;;;;;5078538;28;20513;-74
2022/12/31 00:21:37;;;;;;;4.95;1.30;;;11.30;99.90;;;;;;5096190;28;20091;-74
2022/12/31 00:24:05;;;;;;;4.40;1.30;;;11.40;99.90;;;;;;5077993;28;20044;-74
2022/12/31 00:26:33;;;;;;;2.47;1.08;;;11.40;99.90;;;;;;5078566;28;20450;-74
2022/12/31 00:29:00;;;;;;;3.20;1.30;;;11.40;99.90;;;;;;5061508;28;20056;-74
2022/12/31 00:31:29;;;;;;;6.07;1.23;;;11.40;99.90;;;;;;5077691;28;20403;-74
2022/12/31 00:33:55;;;;;;;3.55;1.17;;;11.40;99.90;;;;;;5095623;28;20044;-73
2022/12/31 00:36:25;;;;;;;4.88;1.30;;;11.40;99.90;;;;;;5095408;28;20055;-74
2022/12/31 00:38:53;;;;;;;4.32;1.65;;;11.40;99.90;;;;;;5077871;28;20085;-74
2022/12/31 00:41:20;;;;;;;2.58;1.30;;;11.40;99.90;;;;;;5095750;28;20044;-74
2022/12/31 00:43:47;;;;;;;3.35;1.30;;;11.30;99.90;;;;;;5095122;28;20081;-75
2022/12/31 00:46:14;;;;;;;2.95;1.10;;;11.30;99.90;;;;;;5095545;28;20067;-74
2022/12/31 00:48:40;;;;;;;3.25;1.45;;;11.40;99.90;;;;;;5095261;28;20125;-74
2022/12/31 00:51:08;;;;;;;2.20;1.10;;;11.40;99.90;;;;;;5095026;28;20492;-74
2022/12/31 00:53:34;;;;;;;2.20;1.10;;;11.40;99.90;;;;;;5077393;28;20044;-74
2022/12/31 00:56:05;;;;;;;2.33;1.05;;;11.30;99.90;;;;;;5077295;28;20050;-74
2022/12/31 00:58:31;;;;;;;5.35;1.50;;;11.40;99.90;;;;;;5077368;28;20136;-74
2022/12/31 01:00:57;;;;;;;2.40;1.10;;;11.30;99.90;;;;;;5077188;28;20047;-74
2022/12/31 01:03:23;;;;;;;3.83;1.10;;;11.30;99.90;;;;;;5077004;28;20044;-74
2022/12/31 01:05:49;;;;;;;3.65;1.17;;;11.30;99.90;;;;;;5094383;28;20131;-75
2022/12/31 01:08:15;;;;;;;2.95;1.20;;;11.30;99.90;;;;;;5077199;28;20366;-74
2022/12/31 01:13:25;;;;;;;2.50;1.23;;;11.30;99.90;;;;;;5094442;28;20087;-74
2022/12/31 01:15:51;;;;;;;3.78;1.77;;;11.20;99.90;;;;;;5094677;28;20083;-75
2022/12/31 01:18:17;;;;;;;3.20;1.48;;;11.20;99.90;;;;;;5077112;28;20055;-74
2022/12/31 01:20:43;;;;;;;2.85;1.40;;;11.20;99.90;;;;;;5094936;28;20131;-74
2022/12/31 01:23:10;;;;;;;3.42;1.67;;;11.20;99.90;;;;;;5095077;28;20545;-74
2022/12/31 01:25:37;;;;;;;3.83;1.98;;;11.20;99.90;;;;;;5094941;28;20044;-74
2022/12/31 01:28:04;;;;;;;4.57;1.83;;;11.20;99.90;;;;;;5076670;28;20055;-74
2022/12/31 01:30:29;;;;;;;3.00;2.20;;;11.20;99.90;;;;;;5076349;28;20461;-75
2022/12/31 01:32:55;;;;;;;4.82;2.83;;;11.20;99.90;;;;;;5060205;28;20126;-75
2022/12/31 01:35:21;;;;;;;7.93;5.25;;;11.20;99.90;;;;;;5076627;28;20047;-74
2022/12/31 01:37:47;;;;;;;16.85;11.43;;;11.20;99.90;;;;;;5094578;28;20044;-74
2022/12/31 01:40:12;;;;;;;26.40;18.40;;;11.20;99.90;;;;;;5059640;28;20052;-74
2022/12/31 01:42:38;;;;;;;39.15;24.10;;;11.20;99.90;;;;;;5094280;28;20044;-74
2022/12/31 01:45:10;;;;;;;36.85;23.80;;;11.20;99.90;;;;;;5075595;28;20052;-75
2022/12/31 01:47:47;;;;;;;31.00;20.50;;;11.20;99.90;;;;;;5076610;28;20050;-74
2022/12/31 01:50:30;;;;;;;35.33;20.60;;;11.20;99.90;;;;;;5076421;28;20063;-74
2022/12/31 01:53:00;;;;;;;39.58;25.33;;;11.30;99.90;;;;;;5076142;28;20088;-75
2022/12/31 01:55:42;;;;;;;37.05;25.13;;;11.30;99.90;;;;;;5093892;28;20122;-75
2022/12/31 01:58:16;;;;;;;33.30;21.75;;;11.30;99.90;;;;;;5094197;28;20123;-74
2022/12/31 02:00:42;;;;;;;18.67;11.35;;;11.30;99.90;;;;;;5076370;28;20044;-75
2022/12/31 02:03:09;;;;;;;11.35;6.50;;;11.30;99.90;;;;;;5076354;28;20131;-74
2022/12/31 02:05:37;;;;;;;10.52;5.68;;;11.30;99.90;;;;;;5059544;28;20052;-75
2022/12/31 02:08:04;;;;;;;8.57;5.10;;;11.30;99.90;;;;;;5093902;28;20135;-75
2022/12/31 02:10:30;;;;;;;9.82;6.50;;;11.60;99.90;;;;;;5094044;28;20044;-75
2022/12/31 02:12:56;;;;;;;13.27;6.72;;;11.30;99.90;;;;;;5075835;28;20040;-76
2022/12/31 02:15:49;;;;;;;12.07;8.05;;;11.30;99.90;;;;;;5093595;28;20044;-75
2022/12/31 02:18:42;;;;;;;15.80;8.43;;;11.30;99.90;;;;;;5059481;28;20061;-75
2022/12/31 02:21:21;;;;;;;7.35;4.43;;;11.30;99.90;;;;;;5094363;28;20043;-74
2022/12/31 02:24:02;;;;;;;8.98;4.35;;;11.30;99.90;;;;;;5059725;28;20048;-75
2022/12/31 02:26:55;;;;;;;12.10;7.25;;;11.30;99.90;;;;;;5075947;28;20048;-74
2022/12/31 02:30:01;;;;;;;14.68;7.35;;;11.30;99.90;;;;;;5093715;28;20040;-75
2022/12/31 02:32:47;;;;;;;11.98;7.78;;;11.30;99.90;;;;;;5093863;28;20078;-75
2022/12/31 02:35:50;;;;;;;22.52;14.75;;;11.20;99.90;;;;;;5093355;28;20054;-74
2022/12/31 02:38:28;;;;;;;;;;;11.30;99.90;;;;;;5011916;28;20128;-75
2022/12/31 02:40:55;;;;;;;33.58;22.48;;;11.20;99.90;;;;;;5083384;28;19931;-74
2022/12/31 02:43:20;;;;;;;34.25;21.77;;;11.20;99.90;;;;;;5074929;28;20487;-76
2022/12/31 02:46:31;;;;;;;26.17;17.23;;;11.20;99.90;;;;;;5075356;28;20050;-74
2022/12/31 02:49:30;;;;;;;26.15;18.05;;;11.20;99.90;;;;;;5011441;28;20128;-75
2022/12/31 02:52:03;;;;;;;21.98;14.52;;;11.20;99.90;;;;;;4995248;28;20058;-75
2022/12/31 02:54:34;;;;;;;22.95;13.02;;;11.20;99.90;;;;;;5072764;28;20218;-72
2022/12/31 02:57:16;;;;;;;20.85;12.68;;;11.20;99.90;;;;;;5093649;28;20098;-71
2022/12/31 03:02:41;;;;;;;9.73;5.60;;;11.20;99.90;;;;;;5093315;28;20510;-72
2022/12/31 03:05:08;;;;;;;6.65;3.17;;;11.20;99.90;;;;;;5075626;28;20044;-71
2022/12/31 03:07:34;;;;;;;6.90;3.53;;;11.10;99.90;;;;;;5093562;28;20047;-71
2022/12/31 03:10:00;;;;;;;6.53;3.40;;;11.20;99.90;;;;;;5076002;28;20048;-71
2022/12/31 03:12:46;;;;;;;7.07;4.10;;;11.20;99.90;;;;;;5093532;28;20044;-71
2022/12/31 03:15:23;;;;;;;6.15;2.97;;;11.20;99.90;;;;;;5094183;28;20087;-71
2022/12/31 03:17:59;;;;;;;4.25;2.90;;;11.20;99.90;;;;;;5075775;28;20468;-71
2022/12/31 03:23:31;;;;;;;5.97;3.35;;;11.20;99.90;;;;;;5094012;28;20056;-72
2022/12/31 03:25:58;;;;;;;8.90;3.80;;;11.10;99.90;;;;;;5075725;28;20075;-72
2022/12/31 03:28:26;;;;;;;8.20;4.15;;;11.10;99.90;;;;;;5095422;28;20130;-71
2022/12/31 03:30:58;;;;;;;7.50;4.63;;;11.10;99.90;;;;;;5097280;28;20056;-71
2022/12/31 03:33:28;;;;;;;9.32;5.88;;;11.10;99.90;;;;;;5097861;28;20445;-71
2022/12/31 03:35:54;;;;;;;11.27;6.78;;;11.10;99.90;;;;;;5097338;28;20484;-71
2022/12/31 03:38:20;;;;;;;9.98;6.05;;;11.10;99.90;;;;;;5097671;28;20059;-71
2022/12/31 03:40:48;;;;;;;8.88;5.43;;;11.10;99.90;;;;;;5079029;28;20109;-71
2022/12/31 03:43:14;;;;;;;10.82;7.35;;;11.00;99.90;;;;;;5063235;28;20095;-71
2022/12/31 03:45:40;;;;;;;15.23;9.60;;;11.00;99.90;;;;;;5097200;28;20538;-72
2022/12/31 03:48:07;;;;;;;17.90;11.43;;;11.00;99.90;;;;;;5079033;28;20040;-72
2022/12/31 03:50:33;;;;;;;23.58;15.52;;;11.00;99.90;;;;;;5096925;28;20056;-71
2022/12/31 03:53:00;;;;;;;24.70;15.18;;;11.00;99.90;;;;;;5096937;28;20070;-71
2022/12/31 03:55:26;;;;;;;22.52;14.75;;;11.00;99.90;;;;;;5096819;28;20075;-72
2022/12/31 03:57:52;;;;;;;18.80;12.20;;;11.00;99.90;;;;;;5097629;28;20136;-71
2022/12/31 04:00:20;;;;;;;16.77;12.10;;;10.90;99.90;;;;;;5096712;28;20539;-71
2022/12/31 04:02:47;;;;;;;15.75;10.50;;;11.00;99.90;;;;;;5097504;28;20044;-72
2022/12/31 04:05:14;;;;;;;12.13;8.18;;;10.90;99.90;;;;;;5079603;28;20055;-71
2022/12/31 04:07:40;;;;;;;11.07;6.47;;;10.90;99.90;;;;;;5078661;28;20059;-71
2022/12/31 04:10:09;;;;;;;11.50;5.40;;;10.90;99.90;;;;;;5078607;28;20070;-70
2022/12/31 04:12:35;;;;;;;11.07;7.13;;;10.90;99.90;;;;;;5078656;28;20051;-71
2022/12/31 04:15:00;;;;;;;9.93;5.80;;;10.90;99.90;;;;;;5096297;28;20127;-71
2022/12/31 04:17:26;;;;;;;11.55;7.10;;;10.90;99.90;;;;;;5096974;28;20044;-71
2022/12/31 04:19:52;;;;;;;14.00;7.78;;;10.80;99.90;;;;;;5078271;28;20101;-71
2022/12/31 04:22:18;;;;;;;15.90;10.70;;;10.90;99.90;;;;;;5079285;28;20113;-73
2022/12/31 04:24:44;;;;;;;28.70;19.20;;;10.80;99.90;;;;;;5096341;28;20442;-73
2022/12/31 04:27:11;;;;;;;30.83;20.38;;;10.80;99.90;;;;;;5078070;28;20052;-73
2022/12/31 04:29:37;;;;;;;17.60;12.05;;;10.80;99.90;;;;;;5096671;28;20483;-72
2022/12/31 04:32:04;;;;;;;14.40;9.05;;;10.80;99.90;;;;;;5096657;28;20044;-72
2022/12/31 04:34:30;;;;;;;10.13;6.93;;;10.80;99.90;;;;;;5096401;28;20052;-72
2022/12/31 04:36:56;;;;;;;4.53;3.10;;;10.70;99.90;;;;;;5078183;28;20051;-72
2022/12/31 04:39:23;;;;;;;2.55;1.25;;;10.80;99.90;;;;;;5095774;28;20048;-73
2022/12/31 04:41:49;;;;;;;1.23;0.60;;;10.70;99.90;;;;;;5095971;28;20044;-72
2022/12/31 04:44:14;;;;;;;1.00;0.52;;;10.80;99.90;;;;;;5061260;28;20055;-72
2022/12/31 04:46:40;;;;;;;3.00;0.88;;;10.70;99.90;;;;;;5078032;28;20059;-72
2022/12/31 04:49:06;;;;;;;4.50;1.70;;;10.70;99.90;;;;;;5061895;28;20138;-72
2022/12/31 04:51:32;;;;;;;5.13;2.72;;;10.70;99.90;;;;;;5095822;28;20067;-73
2022/12/31 04:53:59;;;;;;;8.02;3.72;;;10.70;99.90;;;;;;5096510;28;20048;-73
2022/12/31 04:56:26;;;;;;;6.75;3.55;;;10.70;99.90;;;;;;5096153;28;20048;-73
2022/12/31 04:58:52;;;;;;;7.78;4.47;;;10.70;99.90;;;;;;5095570;28;20048;-73
2022/12/31 05:01:18;;;;;;;11.50;8.30;;;10.60;99.90;;;;;;5077556;28;20075;-73
2022/12/31 05:03:45;;;;;;;19.42;13.30;;;10.60;99.90;;;;;;5077915;28;20051;-73
2022/12/31 05:06:16;;;;;;;18.80;13.98;;;10.60;99.90;;;;;;5095435;28;20052;-73
2022/12/31 05:08:42;;;;;;;16.88;11.25;;;10.60;99.90;;;;;;5096012;28;20048;-72
2022/12/31 05:11:09;;;;;;;18.80;13.68;;;10.60;99.90;;;;;;5077236;28;20047;-72
2022/12/31 05:13:35;;;;;;;21.50;14.98;;;10.60;99.90;;;;;;5060998;28;20097;-73
2022/12/31 05:16:02;;;;;;;23.25;16.48;;;10.60;99.90;;;;;;5095226;28;20044;-73
2022/12/31 05:18:28;;;;;;;19.33;14.80;;;10.70;99.90;;;;;;5078123;28;20048;-73
2022/12/31 05:20:54;;;;;;;14.90;10.57;;;10.70;99.90;;;;;;5077146;28;20495;-71
2022/12/31 05:23:19;;;;;;;6.03;4.82;;;10.70;99.90;;;;;;5077258;28;20044;-72
2022/12/31 05:25:46;;;;;;;3.95;2.20;;;10.70;99.90;;;;;;5095054;28;20426;-73
2022/12/31 05:28:12;;;;;;;3.38;2.20;;;10.70;99.90;;;;;;5077052;28;20060;-73
2022/12/31 05:30:38;;;;;;;2.85;1.90;;;10.70;99.90;;;;;;5095537;28;20044;-72
2022/12/31 05:33:04;;;;;;;2.75;1.20;;;10.70;99.90;;;;;;5076801;28;20446;-73
2022/12/31 05:35:30;;;;;;;2.70;1.52;;;10.70;99.90;;;;;;5094819;28;20086;-73
2022/12/31 05:37:55;;;;;;;3.38;1.90;;;10.70;99.90;;;;;;5094800;28;20084;-73
2022/12/31 05:40:21;;;;;;;3.25;1.08;;;10.70;99.90;;;;;;5076921;28;20076;-73
2022/12/31 05:42:49;;;;;;;3.80;0.90;;;10.70;99.90;;;;;;5076630;28;20510;-73
2022/12/31 05:45:15;;;;;;;1.20;0.85;;;10.70;99.90;;;;;;5094546;28;20089;-72
2022/12/31 05:47:42;;;;;;;1.88;0.93;;;10.70;99.90;;;;;;5094564;28;20074;-72
2022/12/31 05:50:09;;;;;;;3.28;0.70;;;10.60;99.90;;;;;;5094025;28;20067;-72
2022/12/31 05:52:36;;;;;;;2.72;0.60;;;10.70;99.90;;;;;;5094528;28;20127;-72
2022/12/31 05:55:02;;;;;;;2.28;0.70;;;10.60;99.90;;;;;;5076332;28;20116;-72
2022/12/31 05:57:27;;;;;;;1.45;0.80;;;10.70;99.90;;;;;;5076344;28;20048;-72
2022/12/31 05:59:53;;;;;;;2.40;0.80;;;10.60;99.90;;;;;;5094900;28;20097;-73
2022/12/31 06:02:22;;;;;;;1.17;0.50;;;10.70;99.90;;;;;;5076411;28;20043;-72
2022/12/31 06:04:48;;;;;;;2.28;0.80;;;10.70;99.90;;;;;;5094271;28;20377;-73
2022/12/31 06:07:14;;;;;;;1.35;0.75;;;10.60;99.90;;;;;;5094264;28;20051;-70
2022/12/31 06:09:40;;;;;;;1.92;0.70;;;10.60;99.90;;;;;;5094193;28;20050;-73
2022/12/31 06:12:06;;;;;;;1.20;0.80;;;10.60;99.90;;;;;;5094960;28;20039;-73
2022/12/31 06:14:32;;;;;;;3.63;1.30;;;10.70;99.90;;;;;;5076612;28;20052;-74
2022/12/31 06:16:58;;;;;;;6.00;3.67;;;10.70;99.90;;;;;;5094540;28;20431;-75
2022/12/31 06:19:23;;;;;;;4.55;2.88;;;10.60;99.90;;;;;;5093989;28;20044;-75
2022/12/31 06:21:50;;;;;;;3.78;1.48;;;10.60;99.90;;;;;;5094034;28;20083;-74
2022/12/31 06:24:15;;;;;;;2.50;1.10;;;10.60;99.90;;;;;;5075817;28;20109;-75
2022/12/31 06:26:41;;;;;;;2.53;1.20;;;10.60;99.90;;;;;;5076648;28;20052;-75
2022/12/31 06:29:07;;;;;;;2.28;1.20;;;10.60;99.90;;;;;;5093865;28;20130;-75
2022/12/31 06:31:33;;;;;;;3.17;1.00;;;10.60;99.90;;;;;;5075852;28;20040;-75
2022/12/31 06:33:59;;;;;;;4.22;1.10;;;10.60;99.90;;;;;;5093563;28;20503;-75
2022/12/31 06:36:25;;;;;;;2.67;1.30;;;10.60;99.90;;;;;;5093775;28;20123;-75
2022/12/31 06:38:52;;;;;;;3.47;1.40;;;10.60;99.90;;;;;;5075892;28;20058;-75
2022/12/31 06:41:18;;;;;;;2.70;1.27;;;10.60;99.90;;;;;;5093746;28;20110;-76
2022/12/31 06:43:44;;;;;;;3.25;1.77;;;10.60;99.90;;;;;;5094712;28;20043;-75
2022/12/31 06:46:12;;;;;;;4.22;1.60;;;10.70;99.90;;;;;;5059109;28;20124;-75
2022/12/31 06:48:41;;;;;;;3.03;1.70;;;10.60;99.90;;;;;;5059176;28;20052;-75
2022/12/31 06:51:16;;;;;;;3.50;2.03;;;10.60;99.90;;;;;;5094190;28;20060;-74
2022/12/31 06:53:43;;;;;;;6.20;2.72;;;10.60;99.90;;;;;;5093605;28;20055;-74
2022/12/31 06:56:24;;;;;;;6.32;3.08;;;10.60;99.90;;;;;;5058895;28;20040;-74
2022/12/31 06:58:50;;;;;;;7.20;3.65;;;10.60;99.90;;;;;;5094195;28;20054;-75
2022/12/31 07:01:33;;;;;;;11.60;7.30;;;10.60;99.90;;;;;;5093820;28;20047;-75
2022/12/31 07:04:06;;;;;;;16.98;12.10;;;10.70;99.90;;;;;;5097547;28;20054;-75
2022/12/31 07:06:37;;;;;;;19.67;11.20;;;10.60;99.90;;;;;;5098546;28;20052;-75
2022/12/31 07:09:02;;;;;;;13.95;9.13;;;10.60;99.90;;;;;;5080713;28;20048;-74
2022/12/31 07:11:37;;;;;;;9.98;7.20;;;10.60;99.90;;;;;;5097893;28;20124;-74
2022/12/31 07:14:10;;;;;;;11.57;8.43;;;10.60;99.90;;;;;;5097198;28;20491;-75
2022/12/31 07:16:52;;;;;;;16.80;10.82;;;10.60;99.90;;;;;;5098246;28;20040;-74
2022/12/31 07:19:41;;;;;;;15.45;10.68;;;10.60;99.90;;;;;;5097471;28;20048;-74
2022/12/31 07:22:13;;;;;;;16.75;11.48;;;10.60;99.90;;;;;;5097757;28;20422;-75
2022/12/31 07:24:40;;;;;;;18.02;13.02;;;10.50;99.90;;;;;;5079787;28;20464;-74
2022/12/31 07:27:31;;;;;;;13.70;9.63;;;10.60;99.90;;;;;;5079747;28;20089;-74
2022/12/31 07:30:14;;;;;;;7.57;3.47;;;10.50;99.90;;;;;;5098061;28;20418;-72
2022/12/31 07:32:39;;;;;;;3.50;1.45;;;10.50;99.90;;;;;;5097206;28;20101;-74
2022/12/31 07:35:31;;;;;;;3.35;1.48;;;10.50;99.90;;;;;;5096742;28;20040;-74
2022/12/31 07:38:12;;;;;;;5.57;1.88;;;10.50;99.90;;;;;;5097158;28;20048;-75
2022/12/31 07:41:16;;;;;;;13.15;8.02;;;10.50;99.90;;;;;;5097902;28;20349;-74
2022/12/31 07:43:53;;;;;;;27.45;16.08;;;10.40;99.90;;;;;;5096977;28;20039;-73
2022/12/31 07:46:40;;;;;;;27.38;18.52;;;10.40;99.90;;;;;;5096921;28;20087;-74
2022/12/31 07:49:11;;;;;;;20.80;14.38;;;10.40;99.90;;;;;;5079896;28;20456;-73
2022/12/31 07:51:37;;;;;;;17.55;11.38;;;10.40;99.90;;;;;;5096907;28;20055;-74
2022/12/31 07:54:03;;;;;;;14.63;9.73;;;10.40;99.90;;;;;;5096781;28;20050;-73
2022/12/31 07:56:29;;;;;;;10.07;6.38;;;10.40;99.90;;;;;;5078851;28;20052;-74
2022/12/31 07:59:21;;;;;;;14.25;7.70;;;10.40;99.90;;;;;;5097455;28;20044;-74
2022/12/31 08:02:05;;;;;;;11.90;6.95;;;10.40;99.90;;;;;;5043339;28;20114;-73
2022/12/31 08:04:46;;;;;;;10.02;6.35;;;10.40;99.90;;;;;;5096641;28;20048;-73
2022/12/31 08:07:25;;;;;;;9.70;6.88;;;10.40;99.90;;;;;;5078764;28;20502;-73
2022/12/31 08:10:03;;;;;;;13.00;6.47;;;10.40;99.90;;;;;;5096640;28;20092;-72
2022/12/31 08:12:34;;;;;;;13.93;7.22;;;10.40;99.90;;;;;;5062545;28;20051;-72
2022/12/31 08:15:00;;;;;;;13.93;7.55;;;10.40;99.90;;;;;;5096254;28;20055;-73
2022/12/31 08:17:26;;;;;;;14.05;8.45;;;10.40;99.90;;;;;;5096285;28;20052;-72
2022/12/31 08:19:52;;;;;;;8.57;4.50;;;10.40;99.90;;;;;;5096151;28;20447;-72
2022/12/31 08:22:36;;;;;;;3.55;1.52;;;10.40;99.90;;;;;;5096004;28;20476;-72
2022/12/31 08:25:09;;;;;;;1.83;1.15;;;10.40;99.90;;;;;;5096938;28;20040;-72
2022/12/31 08:27:39;;;;;;;8.45;4.47;;;10.40;99.90;;;;;;5061494;28;20484;-72
2022/12/31 08:30:13;;;;;;;2.05;1.48;;;10.40;99.90;;;;;;5078422;28;20392;-72
2022/12/31 08:32:48;;;;;;;3.97;2.22;;;10.40;99.90;;;;;;5077968;28;20048;-72
2022/12/31 08:35:51;;;;;;;2.20;1.63;;;10.40;99.90;;;;;;5078590;28;20086;-72
2022/12/31 08:38:35;;;;;;;2.10;1.40;;;10.40;99.90;;;;;;5096054;28;20050;-72
2022/12/31 08:41:24;;;;;;;3.08;1.35;;;10.40;99.90;;;;;;5096702;28;20376;-72
2022/12/31 08:43:57;;;;;;;4.78;1.27;;;10.50;99.90;;;;;;5095634;28;20124;-72
2022/12/31 08:46:32;;;;;;;1.23;0.80;;;10.40;99.90;;;;;;5096138;28;20054;-71
2022/12/31 08:48:58;;;;;;;1.80;0.90;;;10.50;99.90;;;;;;5097444;28;20044;-72
2022/12/31 08:51:25;;;;;;;1.55;0.93;;;10.50;99.90;;;;;;5096820;28;20058;-72
2022/12/31 08:53:52;;;;;;;1.75;0.80;;;10.50;99.90;;;;;;5096335;28;20040;-70
2022/12/31 08:56:32;;;;;;;2.10;1.00;;;10.50;99.90;;;;;;5095505;28;20039;-69
2022/12/31 08:59:23;;;;;;;1.00;0.70;;;10.50;99.90;;;;;;5078185;28;20090;-70
2022/12/31 09:02:23;;;;;;;1.00;0.60;;;10.60;99.90;;;;;;5095368;28;20044;-70
2022/12/31 09:05:08;;;;;;;1.25;0.60;;;10.60;99.90;;;;;;5095552;28;20044;-69
2022/12/31 09:07:38;;;;;;;1.25;0.60;;;10.60;99.90;;;;;;5076784;28;20622;-70
2022/12/31 09:10:29;;;;;;;2.92;0.90;;;10.70;99.90;;;;;;5095960;28;20047;-70
2022/12/31 09:13:19;;;;;;;1.95;0.80;;;10.70;99.90;;;;;;5095243;28;20044;-69
2022/12/31 09:16:15;;;;;;;1.08;0.80;;;10.70;99.90;;;;;;5095021;28;20036;-74
2022/12/31 09:18:41;;;;;;;1.42;0.90;;;10.80;99.90;;;;;;5095116;28;20044;-72
2022/12/31 09:21:13;;;;;;;1.50;0.90;;;10.80;99.90;;;;;;5077253;28;20047;-73
2022/12/31 09:23:40;;;;;;;2.00;1.03;;;10.80;99.90;;;;;;5095111;28;20074;-72
2022/12/31 09:26:30;;;;;;;1.70;0.98;;;10.90;99.90;;;;;;5076073;28;20119;-72
2022/12/31 09:29:03;;;;;;;1.45;0.98;;;10.90;99.90;;;;;;5077168;28;20048;-72
2022/12/31 09:31:48;;;;;;;2.63;1.80;;;11.00;99.90;;;;;;5095475;28;20052;-72
2022/12/31 09:34:32;;;;;;;2.80;2.10;;;11.00;99.90;;;;;;5095756;28;20087;-72
2022/12/31 09:37:36;;;;;;;4.60;2.83;;;11.10;99.90;;;;;;5095201;28;20040;-71
2022/12/31 09:40:44;;;;;;;8.73;4.93;;;11.20;99.90;;;;;;5036100;28;20226;-71
2022/12/31 09:43:34;;;;;;;7.57;5.22;;;11.20;99.90;;;;;;5091577;28;20173;-71
2022/12/31 09:46:38;;;;;;;6.15;3.83;;;11.30;99.90;;;;;;5077236;28;20466;-72
2022/12/31 09:49:31;;;;;;;7.63;4.25;;;11.30;99.90;;;;;;5094743;28;20082;-73
2022/12/31 09:52:24;;;;;;;5.20;3.00;;;11.40;99.90;;;;;;5095213;28;20457;-73
2022/12/31 09:55:51;;;;;;;3.00;2.22;;;11.40;99.90;;;;;;5095093;28;20048;-73
2022/12/31 09:58:29;;;;;;;6.72;5.05;;;11.50;99.90;;;;;;5057697;28;20094;-71
2022/12/31 10:01:17;;;;;;;4.40;2.65;;;11.50;99.90;;;;;;5094764;28;20101;-73
2022/12/31 10:03:58;;;;;;;3.83;2.08;;;11.60;99.90;;;;;;5094693;28;20071;-72
2022/12/31 10:06:42;;;;;;;8.90;5.07;;;11.60;99.90;;;;;;5094131;28;20094;-71
2022/12/31 10:09:11;;;;;;;2.38;0.60;;;11.60;99.90;;;;;;5094872;28;20093;-70
2022/12/31 10:11:55;;;;;;;1.10;0.60;;;11.60;99.90;;;;;;5076266;28;20089;-71
2022/12/31 10:14:29;;;;;;;1.17;0.50;;;11.70;99.90;;;;;;5094206;28;20048;-73
2022/12/31 10:17:28;;;;;;;1.13;0.40;;;11.70;99.90;;;;;;5093844;28;20502;-72
2022/12/31 10:20:13;;;;;;;1.25;0.40;;;11.80;99.90;;;;;;5076614;28;20052;-68
2022/12/31 10:22:50;;;;;;;0.95;0.43;;;11.90;99.90;;;;;;5094464;28;20419;-69
2022/12/31 10:25:50;;;;;;;1.00;0.30;;;12.00;99.90;;;;;;5094044;28;20048;-70
2022/12/31 10:28:37;;;;;;;1.38;0.30;;;12.10;99.90;;;;;;5094613;28;20043;-68
2022/12/31 10:31:18;;;;;;;1.25;0.30;;;12.20;99.90;;;;;;5094017;28;20043;-68
2022/12/31 10:34:13;;;;;;;1.17;0.40;;;12.20;99.90;;;;;;5076986;28;20048;-68
2022/12/31 10:36:56;;;;;;;1.23;0.30;;;12.30;99.90;;;;;;5066988;28;20129;-71
2022/12/31 10:39:40;;;;;;;;;;;12.30;99.90;;;;;;5094323;28;20052;-69
2022/12/31 10:42:15;;;;;;;;;;;12.40;99.90;;;;;;5094201;28;20003;-69
2022/12/31 10:45:14;;;;;;;1.85;0.40;;;12.40;99.90;;;;;;5075955;28;19963;-70
2022/12/31 10:48:21;;;;;;;1.20;0.30;;;12.40;99.90;;;;;;5094631;28;20418;-70
2022/12/31 10:50:53;;;;;;;2.45;0.40;;;12.40;99.90;;;;;;5093396;28;20056;-69
2022/12/31 10:53:40;;;;;;;2.03;0.35;;;12.40;99.90;;;;;;5093725;28;20178;-69
2022/12/31 10:56:20;;;;;;;4.28;0.50;;;12.40;99.90;;;;;;5075695;28;20392;-67
2022/12/31 10:59:08;;;;;;;1.27;0.30;;;12.50;99.90;;;;;;5059372;28;20051;-67
2022/12/31 11:01:59;;;;;;;1.30;0.45;;;12.40;99.90;;;;;;5093899;28;20105;-67
2022/12/31 11:04:43;;;;;;;1.45;0.40;;;12.50;99.90;;;;;;5094475;28;20121;-67
2022/12/31 11:07:44;;;;;;;3.30;0.60;;;12.60;99.90;;;;;;5093544;28;20036;-67
2022/12/31 11:10:41;;;;;;;1.35;0.45;;;12.70;99.90;;;;;;5093589;28;20484;-66
2022/12/31 11:13:28;;;;;;;1.52;0.45;;;12.60;99.90;;;;;;5075479;28;20073;-67
2022/12/31 11:16:04;;;;;;;3.47;0.32;;;12.70;99.90;;;;;;5093360;28;20082;-67
2022/12/31 11:18:46;;;;;;;1.33;0.50;;;12.70;99.90;;;;;;5093800;28;20436;-67
2022/12/31 11:21:42;;;;;;;1.38;0.40;;;12.70;99.90;;;;;;5093763;28;20051;-67
2022/12/31 11:24:46;;;;;;;2.42;0.50;;;12.80;99.90;;;;;;5075900;28;20044;-67
2022/12/31 11:27:45;;;;;;;1.83;0.55;;;12.80;99.90;;;;;;5093577;28;20054;-69
2022/12/31 11:30:46;;;;;;;4.38;0.70;;;12.80;99.90;;;;;;5093458;28;20083;-67
2022/12/31 11:33:24;;;;;;;4.55;1.33;;;12.80;99.90;;;;;;5065012;28;20068;-67
2022/12/31 11:36:11;;;;;;;6.55;1.13;;;12.90;99.90;;;;;;5093299;28;20040;-67
2022/12/31 11:39:00;;;;;;;6.07;0.80;;;12.90;99.90;;;;;;5075777;28;20086;-66
2022/12/31 11:41:55;;;;;;;3.03;0.70;;;13.00;99.90;;;;;;5047863;28;20147;-69
2022/12/31 11:44:27;;;;;;;3.00;0.98;;;13.10;99.90;;;;;;5094058;28;20059;-75
2022/12/31 11:46:52;;;;;;;2.85;0.60;;;13.10;99.90;;;;;;5075740;28;20113;-68
2022/12/31 11:49:52;;;;;;;4.40;0.90;;;13.10;99.90;;;;;;5094671;28;20040;-69
2022/12/31 11:52:18;;;;;;;3.72;0.85;;;13.10;99.90;;;;;;5074790;28;20056;-69
2022/12/31 11:55:14;;;;;;;2.30;0.55;;;13.10;99.90;;;;;;5062341;28;20050;-67
2022/12/31 11:57:45;;;;;;;2.30;0.50;;;13.00;99.90;;;;;;5062346;28;20377;-67
2022/12/31 12:00:19;;;;;;;3.53;0.80;;;13.10;99.90;;;;;;5097415;28;20048;-68
2022/12/31 12:02:51;;;;;;;2.15;0.60;;;13.10;99.90;;;;;;5097424;28;20059;-67
2022/12/31 12:05:22;;;;;;;4.75;0.75;;;13.10;99.90;;;;;;5097618;28;20399;-65
2022/12/31 12:07:49;;;;;;;2.55;0.50;;;13.20;99.90;;;;;;5097507;28;20051;-66
2022/12/31 12:10:23;;;;;;;1.60;0.70;;;13.20;99.90;;;;;;5096873;28;20074;-67
2022/12/31 12:12:49;;;;;;;4.15;0.40;;;13.20;99.90;;;;;;5077842;28;20047;-67
2022/12/31 12:15:28;;;;;;;1.30;0.50;;;13.20;99.90;;;;;;5096173;28;20421;-66
2022/12/31 12:17:58;;;;;;;0.80;0.40;;;13.20;99.90;;;;;;5096470;28;20468;-66
2022/12/31 12:20:32;;;;;;;2.38;0.73;;;13.20;99.90;;;;;;5095916;28;20044;-66
2022/12/31 12:23:01;;;;;;;2.22;1.02;;;13.20;99.90;;;;;;5095993;28;20040;-69
2022/12/31 12:25:38;;;;;;;5.05;3.35;;;13.20;99.90;;;;;;5096115;28;20152;-69
2022/12/31 12:28:40;;;;;;;1.85;1.02;;;13.20;99.90;;;;;;5077923;28;20052;-67
2022/12/31 12:31:06;;;;;;;1.30;0.60;;;13.20;99.90;;;;;;5078391;28;20048;-67
2022/12/31 12:33:43;;;;;;;2.17;1.00;;;13.10;99.90;;;;;;5095675;28;20059;-68
2022/12/31 12:36:12;;;;;;;1.88;0.70;;;13.10;99.90;;;;;;5077690;28;20040;-68
2022/12/31 12:38:38;;;;;;;3.55;1.60;;;13.10;99.90;;;;;;5078305;28;20048;-69
2022/12/31 12:41:10;;;;;;;1.90;0.80;;;13.10;99.90;;;;;;5096608;28;20384;-68
2022/12/31 12:43:37;;;;;;;2.70;1.57;;;13.10;99.90;;;;;;5095501;28;20046;-68
2022/12/31 12:46:30;;;;;;;1.35;0.80;;;13.10;99.90;;;;;;5096172;28;20627;-70
2022/12/31 12:48:57;;;;;;;2.15;1.00;;;13.00;99.90;;;;;;5096469;28;20048;-70
2022/12/31 12:51:55;;;;;;;1.27;1.10;;;13.00;99.90;;;;;;5077208;28;20060;-69
2022/12/31 12:54:40;;;;;;;3.40;1.10;;;13.00;99.90;;;;;;5096392;28;20047;-68
2022/12/31 12:57:14;;;;;;;2.80;1.10;;;13.00;99.90;;;;;;5095349;28;20047;-69
2022/12/31 12:59:40;;;;;;;4.10;1.98;;;13.10;99.90;;;;;;5095923;28;20047;-68
2022/12/31 13:02:33;;;;;;;3.85;2.10;;;13.10;99.90;;;;;;5077373;28;20051;-68
2022/12/31 13:04:59;;;;;;;;;;;13.10;99.90;;;;;;5095728;28;20048;-69
2022/12/31 13:08:00;;;;;;;2.97;1.77;;;13.10;99.90;;;;;;5077453;28;19926;-69
2022/12/31 13:10:58;;;;;;;2.45;1.30;;;13.10;99.90;;;;;;5095058;28;20048;-69
2022/12/31 13:13:24;;;;;;;5.80;2.10;;;13.10;99.90;;;;;;5058782;28;20081;-70
2022/12/31 13:15:57;;;;;;;3.10;1.30;;;13.20;99.90;;;;;;5095242;28;20127;-69
2022/12/31 13:18:56;;;;;;;3.30;1.23;;;13.20;99.90;;;;;;5095588;28;20044;-71
2022/12/31 13:21:40;;;;;;;4.80;1.20;;;13.20;99.90;;;;;;5095598;28;20082;-69
2022/12/31 13:24:18;;;;;;;3.03;1.20;;;13.20;99.90;;;;;;5095456;28;20091;-68
2022/12/31 13:26:51;;;;;;;3.83;0.90;;;13.20;99.90;;;;;;5095530;28;20361;-68
2022/12/31 13:29:19;;;;;;;;;;;13.20;99.90;;;;;;5077403;28;20044;-68
2022/12/31 13:31:47;;;;;;;5.85;1.63;;;13.30;99.90;;;;;;5094809;28;19927;-71